Time;durP1;ratioP1;P1;durP2;ratioP2;P2;SDS_P1;SDS_P2;PMS_P1;PMS_P2;Temp;Humidity;BMP_temperature;BMP_pressure;BME280_temperature;BME280_humidity;BME280_pressure;Samples;Min_cycle;Max_cycle;Signal;HPM_P1;HPM_P2
2022/08/29 00:00:18;;;;;;;;;;;15.00;99.90;;;;;;5073636;28;19995;-76
2022/08/29 00:02:47;;;;;;;;;;;15.00;99.90;;;;;;5072742;28;19912;-76
2022/08/29 00:05:13;;;;;;;;;;;14.90;99.90;;;;;;5073781;28;19920;-77
2022/08/29 00:07:39;;;;;;;;;;;14.80;99.90;;;;;;5072653;28;19913;-76
2022/08/29 00:10:05;;;;;;;;;;;14.80;99.90;;;;;;5054457;28;20227;-75
2022/08/29 00:12:31;;;;;;;;;;;14.80;99.90;;;;;;5071934;28;20282;-77
2022/08/29 00:14:57;;;;;;;;;;;14.80;99.90;;;;;;5073107;28;20004;-76
2022/08/29 00:17:22;;;;;;;;;;;14.80;99.90;;;;;;5073746;28;20014;-76
2022/08/29 00:19:48;;;;;;;;;;;14.70;99.90;;;;;;5071289;28;19912;-76
2022/08/29 00:22:13;;;;;;;;;;;14.80;99.90;;;;;;5070066;28;19947;-77
2022/08/29 00:24:39;;;;;;;;;;;14.80;99.90;;;;;;5071621;28;20015;-76
2022/08/29 00:27:05;;;;;;;;;;;14.90;99.90;;;;;;5054889;28;20222;-76
2022/08/29 00:29:30;;;;;;;;;;;14.90;99.90;;;;;;5072539;28;19912;-76
2022/08/29 00:31:56;;;;;;;;;;;14.90;99.90;;;;;;5068799;28;19913;-76
2022/08/29 00:34:22;;;;;;;;;;;14.90;99.90;;;;;;5069661;28;19932;-76
2022/08/29 00:36:47;;;;;;;;;;;14.90;99.90;;;;;;5072383;28;19970;-76
2022/08/29 00:39:13;;;;;;;;;;;14.90;99.90;;;;;;5073500;28;19995;-76
2022/08/29 00:41:38;;;;;;;;;;;14.90;99.90;;;;;;5073216;28;19920;-75
2022/08/29 00:44:04;;;;;;;;;;;14.90;99.90;;;;;;5072698;28;19912;-76
2022/08/29 00:46:39;;;;;;;;;;;14.80;99.90;;;;;;5071106;28;19919;-76
2022/08/29 00:49:07;;;;;;;;;;;14.80;99.90;;;;;;5055712;28;19908;-76
2022/08/29 00:51:33;;;;;;;;;;;14.90;99.90;;;;;;5071951;28;19948;-75
2022/08/29 00:54:03;;;;;;;;;;;14.90;99.90;;;;;;5087419;28;19967;-76
2022/08/29 00:56:29;;;;;;;;;;;14.80;99.90;;;;;;5053657;28;19920;-76
2022/08/29 00:58:56;;;;;;;;;;;14.80;99.90;;;;;;5072411;28;19912;-76
2022/08/29 01:01:22;;;;;;;;;;;14.70;99.90;;;;;;5088293;28;19948;-75
2022/08/29 01:03:48;;;;;;;;;;;14.70;99.90;;;;;;5071567;28;19960;-77
2022/08/29 01:06:14;;;;;;;;;;;14.70;99.90;;;;;;5054599;28;20293;-76
2022/08/29 01:08:40;;;;;;;;;;;14.60;99.90;;;;;;5073858;28;19916;-75
2022/08/29 01:13:50;;;;;;;;;;;14.60;99.90;;;;;;5076476;28;20326;-76
2022/08/29 01:16:17;;;;;;;;;;;14.70;99.90;;;;;;5075416;28;19913;-76
2022/08/29 01:18:46;;;;;;;;;;;14.70;99.90;;;;;;5075568;28;19916;-76
2022/08/29 01:21:23;;;;;;;;;;;14.80;99.90;;;;;;5074316;28;20149;-76
2022/08/29 01:24:07;;;;;;;;;;;14.80;99.90;;;;;;5093128;28;19920;-76
2022/08/29 01:26:33;;;;;;;;;;;14.80;99.90;;;;;;5074824;28;20227;-76
2022/08/29 01:28:59;;;;;;;;;;;14.70;99.90;;;;;;5075442;28;19913;-76
2022/08/29 01:31:26;;;;;;;;;;;14.60;99.90;;;;;;5076064;28;19912;-76
2022/08/29 01:33:55;;;;;;;;;;;14.50;99.90;;;;;;5073118;28;19966;-76
2022/08/29 01:36:22;;;;;;;;;;;14.50;99.90;;;;;;5056034;28;19913;-76
2022/08/29 01:38:48;;;;;;;;;;;14.50;99.90;;;;;;5074756;28;20290;-76
2022/08/29 01:41:15;;;;;;;;;;;14.50;99.90;;;;;;5054404;28;20028;-76
2022/08/29 01:43:45;;;;;;;;;;;14.50;99.90;;;;;;5071329;28;19913;-76
2022/08/29 01:46:13;;;;;;;;;;;14.60;99.90;;;;;;5075191;28;19912;-76
2022/08/29 01:48:40;;;;;;;;;;;14.60;99.90;;;;;;5055810;28;19921;-76
2022/08/29 01:51:06;;;;;;;;;;;14.60;99.90;;;;;;5058006;28;19999;-76
2022/08/29 01:53:31;;;;;;;;;;;14.50;99.90;;;;;;5056675;28;20638;-77
2022/08/29 01:55:57;;;;;;;;;;;14.40;99.90;;;;;;5046638;28;19952;-76
2022/08/29 01:58:22;;;;;;;;;;;14.40;99.90;;;;;;5054451;28;19926;-77
2022/08/29 02:00:48;;;;;;;;;;;14.40;99.90;;;;;;5062913;28;20002;-76
2022/08/29 02:03:13;;;;;;;;;;;14.40;99.90;;;;;;5058126;28;19966;-76
2022/08/29 02:05:39;;;;;;;;;;;14.40;99.90;;;;;;5072625;28;19912;-76
2022/08/29 02:08:05;;;;;;;;;;;14.50;99.90;;;;;;5068146;28;20374;-76
2022/08/29 02:10:30;;;;;;;;;;;14.50;99.90;;;;;;5075874;28;20208;-76
2022/08/29 02:12:56;;;;;;;;;;;14.50;99.90;;;;;;5071220;28;19916;-76
2022/08/29 02:15:22;;;;;;;;;;;14.50;99.90;;;;;;5073779;28;19916;-76
2022/08/29 02:17:47;;;;;;;;;;;14.50;99.90;;;;;;5058269;28;19923;-77
2022/08/29 02:20:13;;;;;;;;;;;14.50;99.90;;;;;;5056910;28;19919;-76
2022/08/29 02:22:39;;;;;;;;;;;14.40;99.90;;;;;;5075271;28;19912;-76
2022/08/29 02:25:40;;;;;;;;;;;14.40;99.90;;;;;;5056348;28;19916;-77
2022/08/29 02:27:52;;;;;;;;;;;14.30;99.90;;;;;;5074289;28;19923;-76
2022/08/29 02:30:18;;;;;;;;;;;14.40;99.90;;;;;;5074078;28;19916;-76
2022/08/29 02:32:43;;;;;;;;;;;14.40;99.90;;;;;;5073554;28;19957;-76
2022/08/29 02:35:09;;;;;;;;;;;14.40;99.90;;;;;;5054254;28;19912;-76
2022/08/29 02:37:34;;;;;;;;;;;14.50;99.90;;;;;;5056351;28;19923;-76
2022/08/29 02:40:00;;;;;;;;;;;14.50;99.90;;;;;;5071761;28;19958;-77
2022/08/29 02:42:26;;;;;;;;;;;14.60;99.90;;;;;;5074509;28;19951;-76
2022/08/29 02:44:51;;;;;;;;;;;14.70;99.90;;;;;;5058242;28;19924;-77
2022/08/29 02:47:17;;;;;;;;;;;14.70;99.90;;;;;;5072445;28;19916;-76
2022/08/29 02:49:42;;;;;;;;;;;14.70;99.90;;;;;;5073914;28;20219;-76
2022/08/29 02:52:08;;;;;;;;;;;14.80;99.90;;;;;;5072513;28;19916;-76
2022/08/29 02:54:33;;;;;;;;;;;14.80;99.90;;;;;;5074237;28;19913;-76
2022/08/29 02:56:59;;;;;;;;;;;14.90;99.90;;;;;;5073319;28;19919;-77
2022/08/29 02:59:26;;;;;;;;;;;14.90;99.90;;;;;;5056426;28;20369;-76
2022/08/29 03:01:52;;;;;;;;;;;14.90;99.90;;;;;;5072411;28;19955;-77
2022/08/29 03:04:18;;;;;;;;;;;14.90;99.90;;;;;;5056598;28;19917;-77
2022/08/29 03:06:43;;;;;;;;;;;14.90;99.90;;;;;;5072021;28;19916;-77
2022/08/29 03:09:09;;;;;;;;;;;14.80;99.90;;;;;;5053171;28;19913;-77
2022/08/29 03:11:34;;;;;;;;;;;14.80;99.90;;;;;;5070953;28;19912;-77
2022/08/29 03:14:00;;;;;;;;;;;14.80;99.90;;;;;;5054581;28;19916;-77
2022/08/29 03:16:26;;;;;;;;;;;14.80;99.90;;;;;;5074399;28;19908;-76
2022/08/29 03:18:52;;;;;;;;;;;14.80;99.90;;;;;;5074904;28;20349;-77
2022/08/29 03:21:19;;;;;;;;;;;14.80;99.90;;;;;;5055792;28;19923;-78
2022/08/29 03:23:44;;;;;;;;;;;14.80;99.90;;;;;;5057096;28;19969;-77
2022/08/29 03:26:10;;;;;;;;;;;14.90;99.90;;;;;;5073168;28;20269;-77
2022/08/29 03:28:35;;;;;;;;;;;14.90;99.90;;;;;;5061352;28;19908;-77
2022/08/29 03:31:01;;;;;;;;;;;14.90;99.90;;;;;;5063163;28;20382;-77
2022/08/29 03:33:26;;;;;;;;;;;14.90;99.90;;;;;;5069982;28;19920;-77
2022/08/29 03:35:52;;;;;;;;;;;14.90;99.90;;;;;;5073880;28;19923;-76
2022/08/29 03:38:17;;;;;;;;;;;14.90;99.90;;;;;;5073786;28;19927;-76
2022/08/29 03:40:43;;;;;;;;;;;14.90;99.90;;;;;;5071060;28;19912;-76
2022/08/29 03:43:09;;;;;;;;;;;14.90;99.90;;;;;;5072524;28;19958;-77
2022/08/29 03:45:34;;;;;;;;;;;15.00;99.90;;;;;;5070966;28;19977;-77
2022/08/29 03:48:00;;;;;;;;;;;15.00;99.90;;;;;;5071740;28;19916;-76
2022/08/29 03:50:26;;;;;;;;;;;15.00;99.90;;;;;;5089375;28;19964;-76
2022/08/29 03:52:52;;;;;;;;;;;15.00;99.90;;;;;;5054168;28;20493;-77
2022/08/29 03:55:18;;;;;;;;;;;15.00;99.90;;;;;;5072961;28;19924;-77
2022/08/29 03:57:44;;;;;;;;;;;15.00;99.90;;;;;;5074637;28;19920;-76
2022/08/29 04:00:12;;;;;;;;;;;15.00;99.90;;;;;;5055962;28;19908;-76
2022/08/29 04:02:39;;;;;;;;;;;15.00;99.90;;;;;;5054558;28;19920;-77
2022/08/29 04:05:07;;;;;;;;;;;15.00;99.90;;;;;;5072738;28;19948;-77
2022/08/29 04:07:41;;;;;;;;;;;15.00;99.90;;;;;;5053013;28;20015;-77
2022/08/29 04:10:08;;;;;;;;;;;15.00;99.90;;;;;;5054289;28;19955;-77
2022/08/29 04:12:34;;;;;;;;;;;15.00;99.90;;;;;;5055306;28;19920;-77
2022/08/29 04:14:59;;;;;;;;;;;15.00;99.90;;;;;;5067067;28;19913;-76
2022/08/29 04:17:25;;;;;;;;;;;15.00;99.90;;;;;;5054739;28;19916;-76
2022/08/29 04:19:50;;;;;;;;;;;15.00;99.90;;;;;;5073519;28;19919;-76
2022/08/29 04:22:16;;;;;;;;;;;15.00;99.90;;;;;;5073384;28;19916;-77
2022/08/29 04:24:41;;;;;;;;;;;15.00;99.90;;;;;;5053506;28;19920;-77
2022/08/29 04:27:07;;;;;;;;;;;15.00;99.90;;;;;;5071408;28;19920;-77
2022/08/29 04:29:33;;;;;;;;;;;14.90;99.90;;;;;;5089263;28;19919;-77
2022/08/29 04:31:59;;;;;;;;;;;15.00;99.90;;;;;;5054153;28;19912;-77
2022/08/29 04:34:24;;;;;;;;;;;15.00;99.90;;;;;;5055819;28;20050;-76
2022/08/29 04:36:50;;;;;;;;;;;15.00;99.90;;;;;;5070372;28;19916;-76
2022/08/29 04:39:16;;;;;;;;;;;15.10;99.90;;;;;;5072001;28;19913;-77
2022/08/29 04:41:41;;;;;;;;;;;15.10;99.90;;;;;;5073053;28;19939;-77
2022/08/29 04:44:08;;;;;;;;;;;15.10;99.90;;;;;;5071754;28;19916;-76
2022/08/29 04:46:34;;;;;;;;;;;15.10;99.90;;;;;;5075541;28;19966;-77
2022/08/29 04:48:59;;;;;;;;;;;15.10;99.90;;;;;;5075842;28;19917;-77
2022/08/29 04:51:25;;;;;;;;;;;15.00;99.90;;;;;;5057949;28;20346;-77
2022/08/29 04:53:52;;;;;;;;;;;15.00;99.90;;;;;;5057473;28;19926;-77
2022/08/29 04:56:18;;;;;;;;;;;15.00;99.90;;;;;;5074756;28;19916;-78
2022/08/29 04:58:44;;;;;;;;;;;15.00;99.90;;;;;;5067665;28;20027;-76
2022/08/29 05:01:14;;;;;;;;;;;15.10;99.90;;;;;;5068757;28;20355;-77
2022/08/29 05:03:40;;;;;;;;;;;15.10;99.90;;;;;;5069580;28;20278;-77
2022/08/29 05:06:07;;;;;;;;;;;15.10;99.90;;;;;;5063076;28;19912;-76
2022/08/29 05:08:34;;;;;;;;;;;15.10;99.90;;;;;;5073775;28;19917;-77
2022/08/29 05:11:00;;;;;;;;;;;15.10;99.90;;;;;;5073218;28;19913;-77
2022/08/29 05:13:26;;;;;;;;;;;15.20;99.90;;;;;;5063380;28;20007;-77
2022/08/29 05:15:52;;;;;;;;;;;15.30;99.90;;;;;;5074653;28;19920;-77
2022/08/29 05:18:17;;;;;;;;;;;15.30;99.90;;;;;;5075041;28;19943;-77
2022/08/29 05:20:44;;;;;;;;;;;15.20;99.90;;;;;;5057144;28;19954;-77
2022/08/29 05:23:10;;;;;;;;;;;15.20;99.90;;;;;;5074998;28;19939;-77
2022/08/29 05:25:36;;;;;;;;;;;15.30;99.90;;;;;;5060756;28;19912;-77
2022/08/29 05:28:01;;;;;;;;;;;15.30;99.90;;;;;;5074956;28;20173;-77
2022/08/29 05:30:27;;;;;;;;;;;15.20;99.90;;;;;;5074617;28;19930;-76
2022/08/29 05:32:55;;;;;;;;;;;15.20;99.90;;;;;;5057976;28;19932;-77
2022/08/29 05:35:21;;;;;;;;;;;15.20;99.90;;;;;;5073018;28;20319;-77
2022/08/29 05:37:47;;;;;;;;;;;15.20;99.90;;;;;;5059013;28;19927;-77
2022/08/29 05:40:12;;;;;;;;;;;15.20;99.90;;;;;;5071569;28;19923;-77
2022/08/29 05:42:39;;;;;;;;;;;15.20;99.90;;;;;;5058712;28;20367;-77
2022/08/29 05:45:05;;;;;;;;;;;15.30;99.90;;;;;;5071189;28;19921;-77
2022/08/29 05:47:30;;;;;;;;;;;15.30;99.90;;;;;;5038712;28;19917;-77
2022/08/29 05:49:56;;;;;;;;;;;15.30;99.90;;;;;;5055880;28;19912;-77
2022/08/29 05:52:22;;;;;;;;;;;15.40;99.90;;;;;;5055464;28;19927;-77
2022/08/29 05:54:47;;;;;;;;;;;15.40;99.90;;;;;;5069026;28;19917;-77
2022/08/29 05:57:14;;;;;;;;;;;15.50;99.90;;;;;;5060418;28;20208;-77
2022/08/29 05:59:40;;;;;;;;;;;15.60;99.90;;;;;;5072631;28;19912;-77
2022/08/29 06:02:06;;;;;;;;;;;15.50;99.90;;;;;;5073501;28;19920;-77
2022/08/29 06:04:32;;;;;;;;;;;15.50;99.90;;;;;;5055404;28;19931;-77
2022/08/29 06:06:58;;;;;;;;;;;15.50;99.90;;;;;;5056392;28;20445;-77
2022/08/29 06:09:24;;;;;;;;;;;15.50;99.90;;;;;;5052723;28;20211;-77
2022/08/29 06:11:51;;;;;;;;;;;15.50;99.90;;;;;;5073721;28;20288;-77
2022/08/29 06:14:17;;;;;;;;;;;15.60;99.90;;;;;;5069131;28;19920;-77
2022/08/29 06:16:43;;;;;;;;;;;15.60;99.90;;;;;;5069375;28;20338;-77
2022/08/29 06:19:08;;;;;;;;;;;15.60;99.90;;;;;;5070338;28;19920;-77
2022/08/29 06:21:34;;;;;;;;;;;15.70;99.90;;;;;;5072783;28;19920;-77
2022/08/29 06:23:59;;;;;;;;;;;15.80;99.90;;;;;;5071391;28;19916;-76
2022/08/29 06:26:25;;;;;;;;;;;15.90;99.90;;;;;;5090557;28;19916;-77
2022/08/29 06:28:50;;;;;;;;;;;15.90;99.90;;;;;;5055461;28;19919;-76
2022/08/29 06:31:21;;;;;;;;;;;15.90;99.90;;;;;;5067815;28;19956;-77
2022/08/29 06:33:49;;;;;;;;;;;16.00;99.90;;;;;;5073373;28;19919;-77
2022/08/29 06:36:15;;;;;;;;;;;16.10;99.90;;;;;;5069525;28;19913;-76
2022/08/29 06:38:41;;;;;;;;;;;16.20;99.90;;;;;;5073795;28;20334;-76
2022/08/29 06:41:08;;;;;;;;;;;16.30;99.90;;;;;;5054486;28;19912;-77
2022/08/29 06:43:34;;;;;;;;;;;16.40;99.90;;;;;;5051329;28;19981;-76
2022/08/29 06:45:59;;;;;;;;;;;16.40;99.90;;;;;;5052272;28;20311;-76
2022/08/29 06:48:25;;;;;;;;;;;16.50;99.90;;;;;;5071894;28;19912;-77
2022/08/29 06:50:51;;;;;;;;;;;16.60;99.90;;;;;;5072686;28;20022;-76
2022/08/29 06:53:17;;;;;;;;;;;16.70;99.90;;;;;;5070606;28;19927;-77
2022/08/29 06:55:43;;;;;;;;;;;16.80;99.90;;;;;;5070010;28;19920;-77
2022/08/29 06:58:08;;;;;;;;;;;16.80;99.90;;;;;;5073307;28;19919;-77
2022/08/29 07:00:34;;;;;;;;;;;16.90;99.90;;;;;;5074120;28;19913;-77
2022/08/29 07:02:59;;;;;;;;;;;16.80;99.90;;;;;;5072112;28;20371;-77
2022/08/29 07:05:25;;;;;;;;;;;16.90;99.90;;;;;;5069984;28;19912;-77
2022/08/29 07:07:51;;;;;;;;;;;16.90;99.90;;;;;;5068867;28;19917;-77
2022/08/29 07:10:17;;;;;;;;;;;16.80;99.90;;;;;;5074604;28;19913;-77
2022/08/29 07:12:43;;;;;;;;;;;16.80;99.90;;;;;;5065621;28;19916;-77
2022/08/29 07:15:09;;;;;;;;;;;16.80;99.90;;;;;;5055022;28;19928;-77
2022/08/29 07:17:34;;;;;;;;;;;16.80;99.90;;;;;;5072245;28;19913;-77
2022/08/29 07:20:00;;;;;;;;;;;16.80;99.90;;;;;;5071597;28;19923;-76
2022/08/29 07:22:25;;;;;;;;;;;16.80;99.90;;;;;;5056428;28;19908;-78
2022/08/29 07:24:52;;;;;;;;;;;16.80;99.90;;;;;;5053448;28;19914;-77
2022/08/29 07:27:18;;;;;;;;;;;16.80;99.90;;;;;;5053792;28;19951;-77
2022/08/29 07:29:43;;;;;;;;;;;16.80;99.90;;;;;;5070243;28;19971;-77
2022/08/29 07:32:09;;;;;;;;;;;16.80;99.90;;;;;;5072280;28;19971;-77
2022/08/29 07:34:35;;;;;;;;;;;16.90;99.90;;;;;;5070716;28;19935;-76
2022/08/29 07:37:01;;;;;;;;;;;16.90;99.90;;;;;;5072563;28;19920;-77
2022/08/29 07:39:27;;;;;;;;;;;17.00;99.90;;;;;;5073050;28;19995;-77
2022/08/29 07:41:52;;;;;;;;;;;17.00;99.90;;;;;;5071997;28;20015;-77
2022/08/29 07:44:18;;;;;;;;;;;17.00;99.90;;;;;;5073208;28;19919;-78
2022/08/29 07:46:44;;;;;;;;;;;17.10;99.90;;;;;;5070915;28;19970;-77
2022/08/29 07:49:11;;;;;;;;;;;17.10;99.90;;;;;;5073522;28;20322;-77
2022/08/29 07:51:37;;;;;;;;;;;17.20;99.90;;;;;;5069846;28;20012;-77
2022/08/29 07:54:03;;;;;;;;;;;17.20;99.90;;;;;;5073897;28;19928;-77
2022/08/29 07:56:30;;;;;;;;;;;17.30;99.90;;;;;;5071024;28;20046;-77
2022/08/29 07:58:56;;;;;;;;;;;17.40;99.90;;;;;;5061095;28;19916;-77
2022/08/29 08:01:23;;;;;;;;;;;17.60;99.90;;;;;;5071678;28;19928;-77
2022/08/29 08:03:49;;;;;;;;;;;17.90;99.90;;;;;;5071601;28;20223;-77
2022/08/29 08:06:16;;;;;;;;;;;18.10;99.90;;;;;;5058897;28;19920;-77
2022/08/29 08:08:42;;;;;;;;;;;18.30;99.90;;;;;;5071467;28;19927;-76
2022/08/29 08:11:07;;;;;;;;;;;18.50;99.90;;;;;;5071166;28;19917;-77
2022/08/29 08:13:34;;;;;;;;;;;18.80;99.90;;;;;;5058724;28;20335;-77
2022/08/29 08:16:10;;;;;;;;;;;18.90;99.90;;;;;;5060896;28;19913;-77
2022/08/29 08:18:37;;;;;;;;;;;19.20;99.90;;;;;;5056513;28;20007;-77
2022/08/29 08:21:02;;;;;;;;;;;19.60;99.90;;;;;;5059903;28;20761;-77
2022/08/29 08:23:28;;;;;;;;;;;19.90;99.90;;;;;;5072259;28;19975;-77
2022/08/29 08:25:54;;;;;;;;;;;20.30;99.90;;;;;;5061927;28;19913;-78
2022/08/29 08:28:19;;;;;;;;;;;20.60;99.90;;;;;;5061091;28;19970;-77
2022/08/29 08:30:45;;;;;;;;;;;20.90;99.90;;;;;;5060484;28;20327;-77
2022/08/29 08:33:10;;;;;;;;;;;20.80;99.90;;;;;;5072095;28;19920;-79
2022/08/29 08:35:37;;;;;;;;;;;20.60;99.90;;;;;;5071964;28;20227;-78
2022/08/29 08:38:03;;;;;;;;;;;20.40;99.90;;;;;;5070945;28;19982;-78
2022/08/29 08:40:30;;;;;;;;;;;20.30;99.90;;;;;;5071915;28;19912;-78
2022/08/29 08:43:00;;;;;;;;;;;20.20;99.90;;;;;;5060997;28;20426;-80
2022/08/29 08:45:35;;;;;;;;;;;20.00;99.90;;;;;;5072615;28;19916;-87
2022/08/29 08:48:03;;;;;;;;;;;19.80;99.90;;;;;;5070471;28;19999;-76
2022/08/29 08:50:42;;;;;;;;;;;19.50;99.90;;;;;;5071423;28;19919;-81
2022/08/29 08:53:26;;;;;;;;;;;19.50;99.90;;;;;;5063502;28;19925;-77
2022/08/29 08:55:58;;;;;;;;;;;19.50;99.90;;;;;;5063096;28;19962;-88
2022/08/29 08:58:31;;;;;;;;;;;19.50;99.90;;;;;;5082333;28;19917;-77
2022/08/29 09:01:03;;;;;;;;;;;19.60;99.90;;;;;;5072432;28;20457;-78
2022/08/29 09:03:47;;;;;;;;;;;19.60;99.90;;;;;;5058937;28;19912;-86
2022/08/29 09:06:16;;;;;;;;;;;19.60;99.90;;;;;;5067928;28;19927;-78
2022/08/29 09:08:42;;;;;;;;;;;19.50;99.90;;;;;;5057827;28;19971;-78
2022/08/29 09:11:16;;;;;;;;;;;19.50;99.90;;;;;;5053837;28;19924;-78
2022/08/29 09:13:45;;;;;;;;;;;19.50;99.90;;;;;;5069240;28;19912;-80
2022/08/29 09:16:20;;;;;;;;;;;19.60;99.90;;;;;;5058784;28;20497;-79
2022/08/29 09:18:46;;;;;;;;;;;19.70;99.90;;;;;;5071742;28;20062;-79
2022/08/29 09:21:16;;;;;;;;;;;19.90;99.90;;;;;;5070440;28;19999;-79
2022/08/29 09:23:42;;;;;;;;;;;20.00;99.90;;;;;;5056790;28;19918;-79
2022/08/29 09:26:08;;;;;;;;;;;20.10;99.90;;;;;;5062708;28;19916;-79
2022/08/29 09:28:34;;;;;;;;;;;20.20;99.90;;;;;;5070863;28;19924;-79
2022/08/29 09:31:13;;;;;;;;;;;20.20;99.90;;;;;;5075523;28;19912;-87
2022/08/29 09:33:41;;;;;;;;;;;20.20;99.90;;;;;;5072662;28;19912;-79
2022/08/29 09:36:10;;;;;;;;;;;20.10;99.90;;;;;;5073935;28;19920;-81
2022/08/29 09:38:36;;;;;;;;;;;20.20;99.90;;;;;;5056403;28;19920;-79
2022/08/29 09:41:03;;;;;;;;;;;20.30;99.90;;;;;;5075688;28;19919;-80
2022/08/29 09:43:38;;;;;;;;;;;20.40;99.90;;;;;;5074540;28;19951;-79
2022/08/29 09:46:06;;;;;;;;;;;20.40;99.90;;;;;;5096008;28;19913;-78
2022/08/29 09:48:36;;;;;;;;;;;20.40;99.90;;;;;;5070701;28;19912;-79
2022/08/29 09:51:08;;;;;;;;;;;20.60;99.90;;;;;;5073173;28;19959;-79
2022/08/29 09:53:34;;;;;;;;;;;20.90;99.90;;;;;;5073671;28;19920;-82
2022/08/29 09:56:04;;;;;;;;;;;21.10;99.90;;;;;;5075312;28;19913;-79
2022/08/29 09:58:34;;;;;;;;;;;21.00;99.90;;;;;;5063451;28;20231;-79
2022/08/29 10:01:05;;;;;;;;;;;20.90;99.90;;;;;;5072424;28;20311;-79
2022/08/29 10:03:36;;;;;;;;;;;20.80;99.90;;;;;;5091325;28;19919;-81
2022/08/29 10:06:07;;;;;;;;;;;20.80;99.90;;;;;;5096721;28;19912;-80
2022/08/29 10:08:37;;;;;;;;;;;20.70;99.90;;;;;;5063564;28;20227;-79
2022/08/29 10:11:14;;;;;;;;;;;20.50;99.90;;;;;;5072693;28;19920;-79
2022/08/29 10:13:43;;;;;;;;;;;20.30;99.90;;;;;;5060198;28;20011;-81
2022/08/29 10:16:15;;;;;;;;;;;20.20;99.90;;;;;;5074596;28;19920;-79
2022/08/29 10:18:46;;;;;;;;;;;20.10;99.90;;;;;;5075512;28;19927;-79
2022/08/29 10:21:31;;;;;;;;;;;20.00;99.90;;;;;;5070876;28;19916;-79
2022/08/29 10:24:11;;;;;;;;;;;20.00;99.90;;;;;;5090064;28;20394;-80
2022/08/29 10:26:55;;;;;;;;;;;19.90;99.90;;;;;;5074131;28;19927;-80
2022/08/29 10:29:31;;;;;;;;;;;19.90;99.90;;;;;;5071386;28;19916;-80
2022/08/29 10:32:06;;;;;;;;;;;19.90;99.90;;;;;;5074543;28;19959;-82
2022/08/29 10:34:59;;;;;;;;;;;19.90;99.90;;;;;;5060907;28;20303;-79
2022/08/29 10:37:52;;;;;;;;;;;19.80;99.90;;;;;;5072216;28;19966;-80
2022/08/29 10:40:22;;;;;;;;;;;19.80;99.90;;;;;;5058200;28;19920;-85
2022/08/29 10:42:50;;;;;;;;;;;19.80;99.90;;;;;;5073155;28;19924;-79
2022/08/29 10:45:34;;;;;;;;;;;19.90;99.90;;;;;;5072640;28;19912;-78
2022/08/29 10:48:08;;;;;;;;;;;19.80;99.90;;;;;;5073421;28;19912;-80
2022/08/29 10:50:55;;;;;;;;;;;19.90;99.90;;;;;;5045096;28;19916;-79
2022/08/29 10:53:24;;;;;;;;;;;20.10;99.90;;;;;;5057515;28;19921;-79
2022/08/29 10:55:57;;;;;;;;;;;20.40;99.90;;;;;;5071554;28;20268;-79
2022/08/29 10:58:32;;;;;;;;;;;20.50;99.90;;;;;;5068242;28;19931;-86
2022/08/29 11:01:01;;;;;;;;;;;20.70;99.90;;;;;;5053095;28;19921;-79
2022/08/29 11:03:38;;;;;;;;;;;20.60;99.90;;;;;;5051497;28;19908;-80
2022/08/29 11:06:10;;;;;;;;;;;20.40;99.90;;;;;;5070777;28;19916;-80
2022/08/29 11:08:41;;;;;;;;;;;20.30;99.90;;;;;;5069572;28;19944;-79
2022/08/29 11:11:07;;;;;;;;;;;20.20;99.90;;;;;;5055860;28;19916;-79
2022/08/29 11:13:33;;;;;;;;;;;20.20;99.90;;;;;;5074546;28;19917;-79
2022/08/29 11:16:03;;;;;;;;;;;20.30;99.90;;;;;;5058979;28;20019;-79
2022/08/29 11:18:39;;;;;;;;;;;20.40;99.90;;;;;;5055667;28;19936;-80
2022/08/29 11:21:25;;;;;;;;;;;20.40;99.90;;;;;;5091191;28;19923;-79
2022/08/29 11:23:50;;;;;;;;;;;20.30;99.90;;;;;;5044191;28;19924;-79
2022/08/29 11:26:22;;;;;;;;;;;20.20;99.90;;;;;;5073258;28;19912;-77
2022/08/29 11:28:57;;;;;;;;;;;20.20;99.90;;;;;;5070425;28;19994;-79
2022/08/29 11:31:41;;;;;;;;;;;20.10;99.90;;;;;;5072167;28;20049;-79
2022/08/29 11:34:16;;;;;;;;;;;20.20;99.90;;;;;;5070996;28;19912;-79
2022/08/29 11:36:42;;;;;;;;;;;20.30;99.90;;;;;;5059925;28;20025;-79
2022/08/29 11:39:16;;;;;;;;;;;20.40;99.90;;;;;;5069728;28;19970;-79
2022/08/29 11:41:43;;;;;;;;;;;20.40;99.90;;;;;;5071937;28;19918;-84
2022/08/29 11:44:12;;;;;;;;;;;20.50;99.90;;;;;;5070406;28;20567;-80
2022/08/29 11:46:43;;;;;;;;;;;20.40;99.90;;;;;;5060337;28;19955;-80
2022/08/29 11:49:38;;;;;;;;;;;20.60;99.90;;;;;;5069037;28;21591;-81
2022/08/29 11:52:07;;;;;;;;;;;20.60;99.90;;;;;;5059826;28;19963;-79
2022/08/29 11:54:35;;;;;;;;;;;20.80;99.90;;;;;;5056667;28;19935;-81
2022/08/29 11:57:01;;;;;;;;;;;20.80;99.90;;;;;;5072188;28;19916;-85
2022/08/29 11:59:48;;;;;;;;;;;20.70;99.90;;;;;;5071624;28;19969;-80
2022/08/29 12:02:26;;;;;;;;;;;20.70;99.90;;;;;;5070652;28;19926;-79
2022/08/29 12:04:56;;;;;;;;;;;20.60;99.90;;;;;;5059805;28;20003;-80
2022/08/29 12:07:32;;;;;;;;;;;20.80;99.90;;;;;;5069488;28;19917;-81
2022/08/29 12:09:58;;;;;;;;;;;21.00;99.90;;;;;;5096057;28;19962;-84
2022/08/29 12:12:38;;;;;;;;;;;21.20;99.90;;;;;;5071005;28;20010;-81
2022/08/29 12:15:22;;;;;;;;;;;21.40;99.90;;;;;;5058705;28;20011;-80
2022/08/29 12:17:48;;;;;;;;;;;21.60;99.90;;;;;;5068605;28;19921;-81
2022/08/29 12:20:29;;;;;;;;;;;21.70;99.90;;;;;;5073315;28;20015;-84
2022/08/29 12:22:58;;;;;;;;;;;21.80;99.90;;;;;;5059473;28;19920;-76
2022/08/29 12:25:26;;;;;;;;;;;21.90;99.90;;;;;;5072438;28;19931;-75
2022/08/29 12:27:59;;;;;;;;;;;22.00;99.90;;;;;;5071053;28;19950;-85
2022/08/29 12:30:25;;;;;;;;;;;22.00;99.90;;;;;;5072048;28;20032;-80
2022/08/29 12:32:59;;;;;;;;;;;22.00;99.90;;;;;;5058247;28;20007;-80
2022/08/29 12:35:25;;;;;;;;;;;22.00;99.90;;;;;;5069633;28;19999;-82
2022/08/29 12:37:53;;;;;;;;;;;21.90;99.90;;;;;;5060925;28;20291;-76
2022/08/29 12:40:20;;;;;;;;;;;21.60;99.90;;;;;;5071820;28;19920;-79
2022/08/29 12:43:17;;;;;;;;;;;21.40;99.90;;;;;;5062934;28;20292;-83
2022/08/29 12:45:44;;;;;;;;;;;21.20;99.90;;;;;;5030952;28;19982;-87
2022/08/29 12:48:14;;;;;;;;;;;21.30;99.90;;;;;;5072500;28;19916;-85
2022/08/29 12:50:43;;;;;;;;;;;21.40;99.90;;;;;;5072123;28;19919;-81
2022/08/29 12:53:18;;;;;;;;;;;21.30;99.90;;;;;;5059477;28;19920;-81
2022/08/29 12:55:45;;;;;;;;;;;21.20;99.90;;;;;;5060650;28;19919;-79
2022/08/29 12:58:12;;;;;;;;;;;21.40;99.90;;;;;;5044593;28;19925;-77
2022/08/29 13:00:38;;;;;;;;;;;21.60;99.90;;;;;;5071552;28;20348;-78
2022/08/29 13:03:06;;;;;;;;;;;21.80;99.90;;;;;;5071166;28;19966;-77
2022/08/29 13:05:33;;;;;;;;;;;22.00;99.90;;;;;;5074095;28;19913;-80
2022/08/29 13:08:01;;;;;;;;;;;22.20;99.90;;;;;;5071932;28;19978;-78
2022/08/29 13:10:28;;;;;;;;;;;22.40;99.50;;;;;;5073246;28;20369;-77
2022/08/29 13:13:02;;;;;;;;;;;22.10;99.60;;;;;;5073925;28;19921;-81
2022/08/29 13:15:31;;;;;;;;;;;21.90;99.70;;;;;;5074330;28;19985;-76
2022/08/29 13:17:56;;;;;;;;;;;21.80;99.90;;;;;;5060322;28;19923;-79
2022/08/29 13:20:41;;;;;;;;;;;22.00;99.80;;;;;;5074647;28;19920;-81
2022/08/29 13:23:14;;;;;;;;;;;22.10;99.90;;;;;;5060985;28;19963;-77
2022/08/29 13:25:55;;;;;;;;;;;22.10;99.90;;;;;;5063495;28;19982;-78
2022/08/29 13:28:24;;;;;;;;;;;22.20;99.90;;;;;;5073897;28;19916;-77
2022/08/29 13:31:03;;;;;;;;;;;22.10;99.90;;;;;;5062485;28;19912;-79
2022/08/29 13:33:28;;;;;;;;;;;22.10;99.90;;;;;;5073164;28;19927;-81
2022/08/29 13:35:54;;;;;;;;;;;22.20;99.90;;;;;;5063062;28;19913;-77
2022/08/29 13:38:22;;;;;;;;;;;22.10;99.90;;;;;;5074381;28;19999;-75
2022/08/29 13:40:52;;;;;;;;;;;21.80;99.90;;;;;;5074361;28;19924;-75
2022/08/29 13:43:35;;;;;;;;;;;21.60;99.90;;;;;;5073075;28;19924;-79
2022/08/29 13:46:19;;;;;;;;;;;21.50;99.90;;;;;;5071701;28;20221;-77
2022/08/29 13:48:45;;;;;;;;;;;21.60;99.90;;;;;;5056468;28;19970;-78
2022/08/29 13:51:11;;;;;;;;;;;21.60;99.90;;;;;;5073208;28;20261;-76
2022/08/29 13:53:37;;;;;;;;;;;21.30;99.90;;;;;;5059825;28;19921;-77
2022/08/29 13:56:03;;;;;;;;;;;21.20;99.90;;;;;;5063672;28;19920;-77
2022/08/29 13:58:29;;;;;;;;;;;21.30;99.90;;;;;;5058724;28;19917;-74
2022/08/29 14:00:55;;;;;;;;;;;21.30;99.90;;;;;;5072916;28;20224;-77
2022/08/29 14:03:21;;;;;;;;;;;21.30;99.90;;;;;;5073841;28;20307;-77
2022/08/29 14:05:48;;;;;;;;;;;21.50;99.90;;;;;;5072603;28;19916;-75
2022/08/29 14:08:13;;;;;;;;;;;21.70;99.90;;;;;;5061301;28;19965;-77
2022/08/29 14:10:39;;;;;;;;;;;21.80;99.90;;;;;;5072759;28;19920;-75
2022/08/29 14:13:05;;;;;;;;;;;21.90;99.90;;;;;;5091510;28;19917;-77
2022/08/29 14:15:31;;;;;;;;;;;22.00;99.90;;;;;;5072534;28;20000;-76
2022/08/29 14:17:57;;;;;;;;;;;22.10;99.90;;;;;;5072446;28;20015;-80
2022/08/29 14:20:22;;;;;;;;;;;22.00;99.90;;;;;;5060912;28;20382;-78
2022/08/29 14:22:48;;;;;;;;;;;21.90;99.90;;;;;;5075230;28;19917;-79
2022/08/29 14:25:15;;;;;;;;;;;21.80;99.90;;;;;;5064073;28;20011;-79